Time;durP1;ratioP1;P1;durP2;ratioP2;P2;SDS_P1;SDS_P2;PMS_P1;PMS_P2;Temp;Humidity;BMP_temperature;BMP_pressure;BME280_temperature;BME280_humidity;BME280_pressure;Samples;Min_cycle;Max_cycle;Signal;HPM_P1;HPM_P2
2023/01/10 00:51:58;;;;;;;;;0.00;0.00;;;;;2.59;89.47;100800.38;4863383;29;45553;-94
2023/01/10 00:54:24;;;;;;;;;1.00;1.00;;;;;1.16;89.89;100583.28;4856494;29;45245;-93
2023/01/10 00:56:50;;;;;;;;;0.50;0.50;;;;;2.52;89.58;100804.63;4841054;29;44656;-93
2023/01/10 01:14:46;;;;;;;;;1.50;1.50;;;;;1.40;89.70;100636.69;5331637;23;46897;-94
2023/01/10 01:17:13;;;;;;;;;1.25;1.00;;;;;1.57;89.83;100663.91;4871585;29;45212;-94
2023/01/10 01:19:38;;;;;;;;;1.00;1.00;;;;;2.58;89.73;100856.91;4856913;29;44921;-93
2023/01/10 01:22:07;;;;;;;;;1.00;1.00;;;;;1.67;89.98;100705.75;4860535;29;46877;-93
2023/01/10 01:27:08;;;;;;;;;2.00;1.00;;;;;3.90;90.15;101088.13;5177823;23;46750;-94
2023/01/10 01:29:34;;;;;;;;;2.25;2.25;;;;;4.36;89.69;101176.03;4875799;29;45291;-94
2023/01/10 01:32:00;;;;;;;;;4.50;1.75;;;;;2.56;90.33;100853.38;4883289;29;45242;-93
2023/01/10 01:34:27;;;;;;;;;2.75;1.50;;;;;3.91;90.20;101100.31;4876833;29;45215;-93
2023/01/10 01:36:57;;;;;;;;;3.25;2.25;;;;;3.13;89.90;100991.91;4879788;29;45190;-94
2023/01/10 01:39:32;;;;;;;;;3.00;2.25;;;;;2.40;89.71;100852.25;4882929;29;44871;-93
2023/01/10 01:42:01;;;;;;;;;3.25;1.25;;;;;2.48;89.79;100871.53;4860003;29;46679;-95
2023/01/10 01:44:50;;;;;;;;;1.00;1.00;;;;;4.30;90.03;101174.19;4869443;29;45218;-95
2023/01/10 01:47:25;;;;;;;;;3.50;3.00;;;;;3.61;89.96;101068.47;4871963;29;45418;-95
2023/01/10 01:49:56;;;;;;;;;1.75;1.00;;;;;2.00;90.44;100814.13;4872813;29;45494;-94
2023/01/10 01:52:33;;;;;;;;;0.25;0.25;;;;;3.09;90.14;100997.91;4860337;29;45231;-94
2023/01/10 01:55:07;;;;;;;;;1.00;1.00;;;;;2.11;90.19;100799.53;4874086;29;45356;-93
2023/01/10 01:57:38;;;;;;;;;0.25;0.25;;;;;2.22;90.39;100816.28;4868157;29;44715;-95
2023/01/10 02:00:05;;;;;;;;;2.50;1.00;;;;;3.05;90.23;100962.13;4880230;29;44814;-94
2023/01/10 02:02:37;;;;;;;;;3.00;3.00;;;;;2.92;90.20;100935.81;4883031;29;47534;-92
2023/01/10 02:05:14;;;;;;;;;0.00;0.00;;;;;1.93;90.35;100782.72;4882165;29;44671;-94
2023/01/10 08:47:54;;;;;;;;;5.50;5.50;;;;;4.69;92.59;101269.00;4850436;29;46104;-94
2023/01/10 10:59:14;;;;;;;;;7.67;4.00;;;;;5.61;97.92;101159.22;2547389;23;45582;31
2023/01/10 11:01:48;;;;;;;;;5.00;4.00;;;;;4.50;98.36;100964.16;4803810;29;45441;-93
2023/01/10 11:04:22;;;;;;;;;7.25;5.50;;;;;2.67;98.16;100663.91;5203065;23;45202;-94
2023/01/10 11:07:12;;;;;;;;;4.50;2.75;;;;;4.27;97.95;100915.06;4843044;29;44966;-96
2023/01/10 11:09:54;;;;;;;;;7.75;5.50;;;;;3.40;98.09;100751.00;4847842;29;47202;-93
2023/01/10 11:15:42;;;;;;;;;4.00;4.00;;;;;4.63;98.46;100955.56;4852680;29;45387;-93
2023/01/10 11:18:15;;;;;;;;;4.50;3.00;;;;;2.90;98.50;100636.34;4848740;29;45395;-94
2023/01/10 11:21:00;;;;;;;;;7.25;5.50;;;;;3.09;98.67;100653.97;4848093;29;48182;-95
2023/01/10 11:23:35;;;;;;;;;5.50;3.75;;;;;5.10;98.98;100988.31;4857643;29;45379;-93
2023/01/10 11:26:03;;;;;;;;;10.00;6.00;;;;;5.37;98.94;101045.34;4855888;29;45243;-93
2023/01/10 11:28:31;;;;;;;;;8.50;6.50;;;;;4.34;99.34;100859.31;4841638;29;45396;-95
2023/01/10 11:31:01;;;;;;;;;5.50;5.50;;;;;5.41;99.56;101041.03;4863332;29;45251;-94
2023/01/10 11:33:31;;;;;;;;;6.00;3.50;;;;;4.41;99.59;100836.66;4856791;29;45303;-94
2023/01/10 11:36:07;;;;;;;;;6.25;5.00;;;;;5.24;99.85;101009.41;4862233;29;44705;-95
2023/01/10 11:38:41;;;;;;;;;5.00;3.00;;;;;5.85;100.00;101070.22;4860389;29;45324;-95
2023/01/10 11:41:51;;;;;;;;;;;;;;;;;;;;;
2023/01/10 11:44:24;;;;;;;;;3.00;3.00;;;;;5.86;100.00;101051.00;4820672;29;73936;-95
2023/01/10 11:46:55;;;;;;;;;2.75;2.00;;;;;5.89;100.00;101055.41;4838683;29;45307;-94
2023/01/10 11:49:31;;;;;;;;;2.75;2.75;;;;;5.94;100.00;101063.31;4824291;29;45392;-95
2023/01/10 11:52:24;;;;;;;;;3.75;2.00;;;;;4.39;100.00;100794.78;4844697;29;46370;-94
2023/01/10 11:54:53;;;;;;;;;5.50;4.25;;;;;4.94;99.63;100858.94;4836714;29;45387;-89
2023/01/10 11:57:22;;;;;;;;;4.00;3.00;;;;;3.34;99.96;100570.63;4819288;29;45511;-91
2023/01/10 11:59:57;;;;;;;;;6.25;3.75;;;;;5.31;100.00;100895.88;4816353;29;45551;-92
2023/01/10 12:02:33;;;;;;;;;6.50;4.50;;;;;5.66;100.00;100948.56;4817828;29;47445;-93
2023/01/10 12:05:03;;;;;;;;;7.00;3.75;;;;;5.09;100.00;100832.84;4817373;29;45577;-92
2023/01/10 12:07:28;;;;;;;;;4.75;3.00;;;;;5.79;100.00;100944.25;4821974;29;45457;-89
2023/01/10 12:09:56;;;;;;;;;3.50;3.25;;;;;6.30;100.00;101027.66;4813986;29;45299;-92
2023/01/10 12:12:28;;;;;;;;;5.25;3.75;;;;;5.87;100.00;100941.69;4813877;29;47569;-92
2023/01/10 12:14:56;;;;;;;;;5.75;4.00;;;;;5.76;100.00;100897.03;4817219;29;45634;-93
2023/01/10 12:17:36;;;;;;;;;2.25;2.25;;;;;6.36;100.00;101025.94;4825120;29;44844;-90
2023/01/10 13:39:07;;;;;;;;;4.50;4.50;;;;;6.93;100.00;100868.44;1346962;23;46151;-91
2023/01/10 13:46:51;;;;;;;;;4.00;4.00;;;;;6.44;100.00;100773.00;4883259;23;45699;-93
2023/01/10 13:49:39;;;;;;;;;4.00;4.00;;;;;6.04;100.00;100710.84;4833496;29;47561;-93
2023/01/10 13:52:31;;;;;;;;;5.50;5.50;;;;;6.54;100.00;100780.91;4848433;29;46045;-94
2023/01/10 13:55:02;;;;;;;;;5.50;4.00;;;;;4.48;100.00;100419.66;4817412;29;45044;-92
2023/01/10 13:58:02;;;;;;;;;7.25;5.00;;;;;7.15;100.00;100860.56;4828638;29;45383;-94
2023/01/10 14:13:59;;;;;;;;;3.50;3.00;;;;;6.37;100.00;100667.09;5357731;23;46386;-91
